Empire State — WDE4431 — position and weather

sailwx.info

Track history (hours):
 
Tides and Currents Weather Stations Pressure Air Temp Water Temp Dewpoint Dewpoint Depression Visibility Wind Speed Wind Dir Waves Ship Positions

Empire State

Owner: Crowley Petroleum Services, Jacksonville, FL. More information available from US FCC via Universal Licensing System and Coast Guard Vessel Documentation Center.

Last reported at 2016-May-26 14:33 UTC. Time now 2016-May-26 14:38 UTC.
Position N 45°38' W 122°42'.

Length 183 m; draft 8.8 m.

Type: Military. MMSI: 367353080.

Date/timePositionNaut miles runAvg speedWind from/ knotsBaromVisibWave heightAir tempDewpointWater temp
2016-May-26 14:33N 45°38' W 122°42'0 0.0
2016-May-26 13:33N 45°38' W 122°42'0 0.0
2016-May-26 12:33N 45°38' W 122°42'0 0.0
2016-May-26 11:33N 45°38' W 122°42'0 0.0
2016-May-26 10:33N 45°38' W 122°42'0 0.0
2016-May-26 09:33N 45°38' W 122°42'0 0.0
2016-May-26 08:30N 45°38' W 122°42'0 0.0
2016-May-26 07:33N 45°38' W 122°42'0 0.0
2016-May-26 06:33N 45°38' W 122°42'0 0.0
2016-May-26 05:33N 45°38' W 122°42'0 0.0
2016-May-26 04:33N 45°38' W 122°42'0 0.0
2016-May-26 03:33N 45°38' W 122°42'0 0.0
2016-May-26 02:30N 45°38' W 122°42'0 0.0
2016-May-26 01:33N 45°38' W 122°42'0 0.0
2016-May-26 00:33N 45°38' W 122°42'0 0.0
2016-May-25 23:33N 45°38' W 122°42'0 0.0
2016-May-25 22:33N 45°38' W 122°42'0 0.0
2016-May-25 21:33N 45°38' W 122°42'0 0.0
2016-May-25 20:33N 45°38' W 122°42'0 0.0
2016-May-25 19:30N 45°38' W 122°42'0 0.0
2016-May-25 18:33N 45°38' W 122°42'0 0.0
2016-May-25 17:33N 45°38' W 122°42'0 0.0
2016-May-25 16:33N 45°38' W 122°42'0 0.0
2016-May-25 15:33N 45°38' W 122°42'0 0.0
2016-May-25 14:33N 45°38' W 122°42'0 0.0
2016-May-25 13:33N 45°38' W 122°42'0 0.0
2016-May-25 12:34N 45°38' W 122°42'5 5.1
2016-May-25 11:33N 45°43' W 122°46'1110.7
2016-May-25 10:34N 45°53' W 122°48'1111.2
2016-May-25 09:33N 46°04' W 122°53'1010.5
2016-May-25 08:33N 46°10' W 123°05'1111.0
2016-May-25 07:34N 46°09' W 123°21'10 9.9
2016-May-25 06:33N 46°16' W 123°30'1212.3
2016-May-25 05:34N 46°13' W 123°47'9 9.2
2016-May-25 04:34N 46°14' W 123°60'1111.1
2016-May-25 03:34N 46°10' W 124°15'1110.9
2016-May-25 02:33N 46°05' W 124°28'1313.2
2016-May-25 01:34N 45°59' W 124°45'1414.3
2016-May-25 00:33N 45°52' W 125°04'1413.7
2016-May-24 23:34N 45°43' W 125°18'1414.1
2016-May-24 22:33N 45°32' W 125°30'1414.2
2016-May-24 21:33N 45°20' W 125°42'1414.1
2016-May-24 20:32N 45°08' W 125°53'2812.9
2016-May-24 18:20N 44°41' W 126°01'39113.5
2016-May-23 13:19N 38°16' W 124°26'1114.0
2016-May-23 12:34N 38°07' W 124°18'2814.1
2016-May-23 10:33N 37°46' W 123°53'1913.5
2016-May-23 09:09N 37°34' W 123°36'1911.2
2016-May-23 07:30N 37°29' W 123°13'1111.8
2016-May-23 06:33N 37°35' W 123°01'1010.4
2016-May-23 05:33N 37°41' W 122°50'1010.1
2016-May-23 04:33N 37°46' W 122°39'1211.8
2016-May-23 03:33N 37°51' W 122°26'1010.0
2016-May-23 02:33N 38°01' W 122°24'8 8.0
2016-May-23 01:31N 38°04' W 122°15'0 0.0
2016-May-21 23:33N 38°04' W 122°15'7 7.6
2016-May-21 22:33N 38°01' W 122°24'1212.0
2016-May-21 21:33N 37°49' W 122°23'4 3.4
2016-May-21 20:31N 37°46' W 122°21'0 0.1
2016-May-21 19:28N 37°46' W 122°21'0 0.0
2016-May-21 18:31N 37°46' W 122°21'0 0.0
2016-May-21 17:31N 37°46' W 122°21'0 0.0
2016-May-21 16:31N 37°46' W 122°21'0 0.0
2016-May-21 15:31N 37°46' W 122°21'0 0.2
2016-May-21 14:31N 37°46' W 122°21'0 0.0
2016-May-21 13:31N 37°46' W 122°21'2 2.4
2016-May-21 12:33N 37°48' W 122°23'1010.0
2016-May-21 11:33N 37°47' W 122°36'10 9.9
2016-May-21 10:33N 37°41' W 122°46'8 8.0
2016-May-21 09:33N 37°37' W 122°55'9 8.9
2016-May-21 08:33N 37°32' W 123°04'1111.1
2016-May-21 07:33N 37°26' W 123°16'2912.2
2016-May-21 05:12N 37°13' W 123°48'1013.1
2016-May-21 04:28N 37°09' W 123°59'1613.5
2016-May-21 03:18N 37°02' W 124°17'  
Track history (hours):
 
Tides and Currents Weather Stations Pressure Air Temp Water Temp Dewpoint Dewpoint Depression Visibility Wind Speed Wind Dir Waves Ship Positions

Empire State

Owner: Crowley Petroleum Services, Jacksonville, FL. More information available from US FCC via Universal Licensing System and Coast Guard Vessel Documentation Center.

Last reported at 2016-May-26 14:33 UTC. Time now 2016-May-26 14:38 UTC.
Position N 45°38' W 122°42'.

Length 183 m; draft 8.8 m.

Type: Military. MMSI: 367353080.

Date/timePositionNaut miles runAvg speedWind from/ knotsBaromVisibWave heightAir tempDewpointWater temp
2016-May-26 14:33N 45°38' W 122°42'0 0.0
2016-May-26 13:33N 45°38' W 122°42'0 0.0
2016-May-26 12:33N 45°38' W 122°42'0 0.0
2016-May-26 11:33N 45°38' W 122°42'0 0.0
2016-May-26 10:33N 45°38' W 122°42'0 0.0
2016-May-26 09:33N 45°38' W 122°42'0 0.0
2016-May-26 08:30N 45°38' W 122°42'0 0.0
2016-May-26 07:33N 45°38' W 122°42'0 0.0
2016-May-26 06:33N 45°38' W 122°42'0 0.0
2016-May-26 05:33N 45°38' W 122°42'0 0.0
2016-May-26 04:33N 45°38' W 122°42'0 0.0
2016-May-26 03:33N 45°38' W 122°42'0 0.0
2016-May-26 02:30N 45°38' W 122°42'0 0.0
2016-May-26 01:33N 45°38' W 122°42'0 0.0
2016-May-26 00:33N 45°38' W 122°42'0 0.0
2016-May-25 23:33N 45°38' W 122°42'0 0.0
2016-May-25 22:33N 45°38' W 122°42'0 0.0
2016-May-25 21:33N 45°38' W 122°42'0 0.0
2016-May-25 20:33N 45°38' W 122°42'0 0.0
2016-May-25 19:30N 45°38' W 122°42'0 0.0
2016-May-25 18:33N 45°38' W 122°42'0 0.0
2016-May-25 17:33N 45°38' W 122°42'0 0.0
2016-May-25 16:33N 45°38' W 122°42'0 0.0
2016-May-25 15:33N 45°38' W 122°42'0 0.0
2016-May-25 14:33N 45°38' W 122°42'0 0.0
2016-May-25 13:33N 45°38' W 122°42'0 0.0
2016-May-25 12:34N 45°38' W 122°42'5 5.1
2016-May-25 11:33N 45°43' W 122°46'1110.7
2016-May-25 10:34N 45°53' W 122°48'1111.2
2016-May-25 09:33N 46°04' W 122°53'1010.5
2016-May-25 08:33N 46°10' W 123°05'1111.0
2016-May-25 07:34N 46°09' W 123°21'10 9.9
2016-May-25 06:33N 46°16' W 123°30'1212.3
2016-May-25 05:34N 46°13' W 123°47'9 9.2
2016-May-25 04:34N 46°14' W 123°60'1111.1
2016-May-25 03:34N 46°10' W 124°15'1110.9
2016-May-25 02:33N 46°05' W 124°28'1313.2
2016-May-25 01:34N 45°59' W 124°45'1414.3
2016-May-25 00:33N 45°52' W 125°04'1413.7
2016-May-24 23:34N 45°43' W 125°18'1414.1
2016-May-24 22:33N 45°32' W 125°30'1414.2
2016-May-24 21:33N 45°20' W 125°42'1414.1
2016-May-24 20:32N 45°08' W 125°53'2812.9
2016-May-24 18:20N 44°41' W 126°01'39113.5
2016-May-23 13:19N 38°16' W 124°26'1114.0
2016-May-23 12:34N 38°07' W 124°18'2814.1
2016-May-23 10:33N 37°46' W 123°53'1913.5
2016-May-23 09:09N 37°34' W 123°36'1911.2
2016-May-23 07:30N 37°29' W 123°13'1111.8
2016-May-23 06:33N 37°35' W 123°01'1010.4
2016-May-23 05:33N 37°41' W 122°50'1010.1
2016-May-23 04:33N 37°46' W 122°39'1211.8
2016-May-23 03:33N 37°51' W 122°26'1010.0
2016-May-23 02:33N 38°01' W 122°24'8 8.0
2016-May-23 01:31N 38°04' W 122°15'0 0.0
2016-May-21 23:33N 38°04' W 122°15'7 7.6
2016-May-21 22:33N 38°01' W 122°24'1212.0
2016-May-21 21:33N 37°49' W 122°23'4 3.4
2016-May-21 20:31N 37°46' W 122°21'0 0.1
2016-May-21 19:28N 37°46' W 122°21'0 0.0
2016-May-21 18:31N 37°46' W 122°21'0 0.0
2016-May-21 17:31N 37°46' W 122°21'0 0.0
2016-May-21 16:31N 37°46' W 122°21'0 0.0
2016-May-21 15:31N 37°46' W 122°21'0 0.2
2016-May-21 14:31N 37°46' W 122°21'0 0.0
2016-May-21 13:31N 37°46' W 122°21'2 2.4
2016-May-21 12:33N 37°48' W 122°23'1010.0
2016-May-21 11:33N 37°47' W 122°36'10 9.9
2016-May-21 10:33N 37°41' W 122°46'8 8.0
2016-May-21 09:33N 37°37' W 122°55'9 8.9
2016-May-21 08:33N 37°32' W 123°04'1111.1
2016-May-21 07:33N 37°26' W 123°16'2912.2
2016-May-21 05:12N 37°13' W 123°48'1013.1
2016-May-21 04:28N 37°09' W 123°59'1613.5
2016-May-21 03:18N 37°02' W 124°17'  

Dump ship's entire track history